• Join FlightAware (Why Join?)
  • Login
  • US Flag 
04:12PM EDT


 

Airport Tracker/Info


-or-


 

Live Flight TrackerFlight Track Log ✈ UAL118 ✈ 06-Jan-2014 ✈ CYYR - KEWR

Flight Track Log - Related Links

Times and Time Zones

All times are in EST time to prevent confusion due to time zone crossing. See the UAL118 flight status page for this flight to view local times or setup timezone preferences in your user account.

Time Position Orientation Groundspeed Altitude Reporting Facility
EST Latitude Longitude Course Direction KTS MPH feet Rate Location/Type
11:04AM 53.2833 -60.4167 254° West 170 196 1,300  Level Moncton Center
11:05AM 53.2667 -60.5167 254° West 200 230 3,200 2,460 Climbing Moncton Center
11:06AM 53.2167 -60.6000 225° Southwest 250 288 6,300 3,240 Climbing Moncton Center
11:07AM 53.1833 -60.7167 245° Southwest 260 299 9,700 2,520 Climbing Moncton Center
11:08AM 53.1167 -60.8000 217° Southwest 280 322 11,400 1,920 Climbing Moncton Center
11:09AM 53.0667 -60.9500 241° Southwest 340 391 13,600 2,460 Climbing Moncton Center
11:10AM 53.0000 -61.0667 227° Southwest 360 414 16,400 2,700 Climbing Moncton Center
11:11AM 52.9500 -61.2000 238° Southwest 360 414 19,100 2,520 Climbing Moncton Center
11:13AM 52.8667 -61.4000 235° Southwest 370 426 22,300 2,220 Climbing Gander Center
11:14AM 52.8000 -61.5000 222° Southwest 370 426 24,400 1,860 Climbing Gander Center
11:15AM 52.7333 -61.6333 230° Southwest 370 426 26,100 1,560 Climbing Gander Center
11:16AM 52.6667 -61.7833 234° Southwest 380 437 27,600 1,440 Climbing Gander Center
11:17AM 52.6000 -61.9167 231° Southwest 390 449 29,000 1,680 Climbing Gander Center
11:18AM 52.5167 -62.0500 224° Southwest 390 449 31,000 1,980 Climbing Gander Center
11:19AM 52.4500 -62.1833 231° Southwest 380 437 33,000 1,500 Climbing Gander Center
11:20AM 52.3833 -62.3167 231° Southwest 360 414 34,000 480 Climbing Gander Center
11:21AM 52.3167 -62.4333 227° Southwest 360 414 34,000  Level Gander Center
11:22AM 52.2500 -62.5667 231° Southwest 370 426 34,000  Level Gander Center
11:23AM 52.2000 -62.7000 239° Southwest 370 426 34,000  Level Gander Center
11:24AM 52.1333 -62.8000 223° Southwest 370 426 34,000  Level Gander Center
11:25AM 52.0667 -62.9333 231° Southwest 370 426 34,000  Level Gander Center
11:26AM 52.0000 -63.0667 231° Southwest 370 426 34,000  Level Gander Center
11:27AM 51.9333 -63.2000 231° Southwest 370 426 34,000  Level Gander Center
11:28AM 51.8500 -63.3333 225° Southwest 370 426 34,000  Level Gander Center
11:29AM 51.8000 -63.4667 239° Southwest 370 426 34,000  Level Gander Center
11:30AM 51.7333 -63.6000 231° Southwest 370 426 34,000  Level Gander Center
11:31AM 51.6667 -63.7167 227° Southwest 370 426 34,000  Level Gander Center
11:32AM 51.6000 -63.8333 227° Southwest 370 426 34,000  Level Gander Center
11:33AM 51.5333 -63.9667 231° Southwest 380 437 34,000 600 Level Gander Center
11:34AM 51.4500 -64.1000 225° Southwest 370 426 35,200 960 Climbing Gander Center
11:35AM 51.3833 -64.2333 231° Southwest 360 414 36,000 360 Climbing Gander Center
11:36AM 51.3167 -64.3333 223° Southwest 360 414 36,000  Level Gander Center
11:37AM 51.2667 -64.4667 239° Southwest 360 414 36,000  Level Gander Center
11:38AM 51.2000 -64.5833 228° Southwest 360 414 36,000  Level Gander Center
11:39AM 51.1167 -64.7000 221° Southwest 360 414 36,000  Level Gander Center
11:40AM 51.0500 -64.8167 228° Southwest 360 414 36,000  Level Gander Center
11:41AM 51.0000 -64.9167 232° Southwest 360 414 36,000  Level Gander Center
11:42AM 50.9333 -65.0500 232° Southwest 360 414 36,000  Level Gander Center
11:43AM 50.8500 -65.1833 225° Southwest 360 414 36,000  Level Gander Center
11:44AM 50.7833 -65.3000 228° Southwest 360 414 36,000  Level Gander Center
11:44AM 50.7500 -65.3833 238° Southwest 350 403 36,000  Level Moncton Center
11:45AM 50.6833 -65.4833 224° Southwest 350 403 36,000  Level Moncton Center
11:46AM 50.6167 -65.5833 224° Southwest 340 391 36,000  Level Moncton Center
11:47AM 50.6000 -65.6000 212° Southwest 340 391 36,000  Level Montreal Center
11:48AM 50.5167 -65.7333 226° Southwest 340 391 36,000  Level Montreal Center
11:49AM 50.4667 -65.8167 227° Southwest 340 391 36,000  Level Montreal Center
11:50AM 50.3833 -65.9500 226° Southwest 340 391 36,000  Level Montreal Center
11:51AM 50.3333 -66.0667 236° Southwest 340 391 36,000  Level Montreal Center
11:52AM 50.2667 -66.1500 219° Southwest 340 391 36,000  Level Montreal Center
11:53AM 50.2000 -66.2667 228° Southwest 330 380 36,000  Level Montreal Center
11:54AM 50.1333 -66.3333 213° Southwest 340 391 36,000  Level Montreal Center
11:55AM 50.0667 -66.4667 232° Southwest 340 391 36,000  Level Montreal Center
11:56AM 49.9833 -66.5333 207° Southwest 330 380 36,000  Level Montreal Center
11:57AM 49.9000 -66.6167 213° Southwest 330 380 36,000  Level Montreal Center
11:58AM 49.8500 -66.7167 232° Southwest 330 380 36,000  Level Montreal Center
11:59AM 49.7667 -66.8167 218° Southwest 330 380 36,000  Level Montreal Center
12:00PM 49.7000 -66.9000 219° Southwest 330 380 36,000  Level Montreal Center
12:01PM 49.6333 -67.0000 224° Southwest 330 380 36,000  Level Montreal Center
12:02PM 49.5500 -67.0667 207° Southwest 330 380 36,000  Level Montreal Center
12:03PM 49.4833 -67.1500 219° Southwest 330 380 36,000  Level Montreal Center
12:04PM 49.4167 -67.2500 224° Southwest 320 368 36,000  Level Montreal Center
12:05PM 49.3333 -67.3333 213° Southwest 320 368 36,000  Level Montreal Center
12:06PM 49.2833 -67.4167 227° Southwest 320 368 36,000  Level Montreal Center
12:07PM 49.2000 -67.5167 218° Southwest 320 368 36,000  Level Montreal Center
12:08PM 49.1333 -67.6000 219° Southwest 320 368 36,000  Level Montreal Center
12:09PM 49.0667 -67.6667 213° Southwest 320 368 36,000  Level Montreal Center
12:10PM 48.9833 -67.7667 218° Southwest 320 368 36,000  Level Montreal Center
12:11PM 48.9167 -67.8500 219° Southwest 320 368 36,000  Level Montreal Center
12:12PM 48.8500 -67.9333 219° Southwest 320 368 36,000  Level Montreal Center
12:13PM 48.7833 -68.0167 219° Southwest 320 368 36,000  Level Montreal Center
12:14PM 48.7000 -68.1167 218° Southwest 320 368 36,000  Level Montreal Center
12:15PM 48.6333 -68.1667 206° Southwest 310 357 36,000  Level Montreal Center
12:16PM 48.5833 -68.2667 233° Southwest 310 357 36,000  Level Montreal Center
12:17PM 48.5000 -68.3500 214° Southwest 310 357 36,000  Level Montreal Center
12:18PM 48.4333 -68.4167 214° Southwest 310 357 36,000  Level Montreal Center
12:19PM 48.3667 -68.5000 220° Southwest 310 357 36,000  Level Montreal Center
12:20PM 48.3000 -68.5833 220° Southwest 320 368 36,000  Level Montreal Center
12:21PM 48.2167 -68.6667 214° Southwest 320 368 36,000  Level Montreal Center
12:22PM 48.1500 -68.7500 220° Southwest 320 368 36,000  Level Montreal Center
12:23PM 48.0833 -68.8167 214° Southwest 330 380 36,000  Level Montreal Center
12:24PM 48.0167 -68.9333 230° Southwest 330 380 36,000  Level Montreal Center
12:25PM 47.9333 -68.9833 202° Southwest 320 368 36,000  Level Montreal Center
12:26PM 47.8667 -69.0833 225° Southwest 320 368 36,000  Level Montreal Center
12:31PM 47.4898 -69.5406 225° Southwest 325 374 36,000  Level FlightAware ADS-B (CYSG)
12:32PM 47.4432 -69.5924 217° Southwest 326 375 36,000  Level FlightAware ADS-B (CYSG)
12:32PM 47.4029 -69.6375 217° Southwest 326 375 36,000  Level FlightAware ADS-B (CYSG)
12:34PM 47.3277 -69.7212 217° Southwest 327 376 36,000  Level FlightAware ADS-B (CYSG)
12:34PM 47.2664 -69.7889 217° Southwest 327 376 36,000  Level FlightAware ADS-B (CYSG)
12:35PM 47.2278 -69.8315 217° Southwest 326 375 36,000  Level FlightAware ADS-B (CYSG)
12:36PM 47.1789 -69.8854 217° Southwest 326 375 36,000  Level FlightAware ADS-B (CYSG)
12:36PM 47.1389 -69.9294 217° Southwest 328 377 36,000  Level FlightAware ADS-B (CYSG)
12:37PM 47.0919 -69.9809 217° Southwest 327 376 36,000  Level FlightAware ADS-B (CYSG)
12:37PM 47.0410 -70.0363 217° Southwest 327 376 36,000  Level FlightAware ADS-B (CYSG)
12:38PM 46.9933 -70.0883 217° Southwest 327 376 36,000  Level FlightAware ADS-B (CYSG)
12:39PM 46.9530 -70.1323 217° Southwest 327 376 36,000  Level FlightAware ADS-B (CYSG)
12:39PM 46.9041 -70.1853 217° Southwest 326 375 36,000  Level FlightAware ADS-B (CYSG)
12:40PM 46.8333 -70.2667 217° Southwest 320 368 36,000  Level Moncton Center
12:41PM 46.7833 -70.2833 193° South 320 368 36,000  Level Montreal Center
12:42PM 46.7167 -70.3333 207° Southwest 310 357 36,000  Level Montreal Center
12:43PM 46.6333 -70.4167 214° Southwest 310 357 36,000  Level Montreal Center
12:44PM 46.5833 -70.5000 229° Southwest 310 357 36,000  Level Montreal Center
12:45PM 46.5000 -70.5833 215° Southwest 310 357 36,000  Level Montreal Center
12:51PM 46.2560 -70.8740 215° Southwest 315 362 36,000  Level FlightAware ADS-B
12:52PM 46.2300 -70.9010 216° Southwest 314 361 36,000  Level FlightAware ADS-B
12:56PM 45.7390 -71.4040 216° Southwest 314 361 36,000  Level FlightAware ADS-B
12:58PM 45.6290 -71.5160 215° Southwest 316 364 36,000  Level FlightAware ADS-B
12:59PM 45.5124 -71.6324 215° Southwest 317 365 36,000  Level FlightAware ADS-B (CYOW)
12:59PM 45.5690 -71.5760 35° Northeast 317 365 36,000  Level FlightAware ADS-B
01:01PM 45.4900 -71.6550 215° Southwest 317 365 36,000  Level FlightAware ADS-B
01:03PM 45.3990 -71.7460 215° Southwest 316 364 36,000  Level FlightAware ADS-B
01:04PM 45.1754 -71.9673 215° Southwest 315 362 36,000  Level FlightAware ADS-B (CYOW)
01:04PM 45.1300 -72.0120 215° Southwest 317 365 36,000  Level FlightAware ADS-B
01:05PM 45.1191 -72.0229 215° Southwest 317 365 36,000  Level FlightAware ADS-B (CYOW)
01:05PM 45.1050 -72.0370 215° Southwest 318 366 36,000  Level FlightAware ADS-B
01:06PM 45.0740 -72.0670 214° Southwest 318 366 36,000  Level FlightAware ADS-B
01:06PM 45.0310 -72.1090 215° Southwest 316 364 36,000  Level FlightAware ADS-B
01:07PM 44.9990 -72.1410 215° Southwest 315 362 36,000  Level FlightAware ADS-B
01:07PM 44.9780 -72.1610 214° Southwest 314 361 36,000  Level FlightAware ADS-B
01:07PM 44.9039 -72.2336 215° Southwest 313 360 36,000  Level FlightAware ADS-B (CYOW)
01:08PM 44.9490 -72.1890 35° Northeast 313 360 36,000  Level FlightAware ADS-B
01:09PM 44.9270 -72.2110 215° Southwest 314 361 36,000  Level FlightAware ADS-B
01:09PM 44.9040 -72.2330 214° Southwest 314 361 36,000  Level FlightAware ADS-B
01:10PM 44.7571 -72.3763 215° Southwest 308 354 36,000  Level FlightAware ADS-B (CYOW)
01:10PM 44.7018 -72.4243 212° Southwest 314 361 36,000  Level FlightAware ADS-B (CYOW)
01:10PM 44.7050 -72.4220 27° Northeast 314 361 36,000  Level FlightAware ADS-B
01:11PM 44.6510 -72.4650 210° Southwest 317 365 36,000  Level FlightAware ADS-B
01:11PM 44.6201 -72.4900 210° Southwest 317 365 36,000  Level FlightAware ADS-B (KBTV)
01:12PM 44.6110 -72.4970 209° Southwest 318 366 36,000 -180 Level FlightAware ADS-B
01:12PM 44.5900 -72.5140 210° Southwest 315 362 35,900 -300 Descending FlightAware ADS-B
01:13PM 44.5660 -72.5330 209° Southwest 314 361 35,700 -540 Descending FlightAware ADS-B
01:13PM 44.5430 -72.5520 210° Southwest 316 364 35,300 -660 Descending FlightAware ADS-B
01:14PM 44.5170 -72.5730 210° Southwest 318 366 34,900 -2,820 Descending FlightAware ADS-B
01:14PM 44.4215 -72.6487 210° Southwest 321 369 33,100 -3,540 Descending FlightAware ADS-B (KBTV)
01:15PM 44.3970 -72.6680 209° Southwest 327 376 32,800 -1,380 Descending FlightAware ADS-B
01:15PM 44.3702 -72.6893 210° Southwest 328 377 32,200 -720 Descending FlightAware ADS-B (KBTV)
01:15PM 44.3750 -72.6860 26° Northeast 329 379 32,400 -120 Climbing FlightAware ADS-B
01:16PM 44.3570 -72.7000 209° Southwest 329 379 32,100 -780 Descending FlightAware ADS-B
01:16PM 44.2945 -72.7498 210° Southwest 331 381 32,000 -180 Descending FlightAware ADS-B (KBTV)
01:16PM 44.3320 -72.7200 30° Northeast 329 379 32,000  Level FlightAware ADS-B
01:17PM 44.2100 -72.8170 210° Southwest 331 381 32,000  Level FlightAware ADS-B
01:17PM 44.1870 -72.8350 209° Southwest 331 381 32,000  Level FlightAware ADS-B
01:19PM 44.1230 -72.8860 210° Southwest 335 386 32,000  Level FlightAware ADS-B
01:20PM 43.9150 -73.0350 207° Southwest 330 380 32,000  Level FlightAware ADS-B
01:21PM 43.8780 -73.0590 205° Southwest 327 376 32,000  Level FlightAware ADS-B
01:21PM 43.8640 -73.0690 207° Southwest 326 375 32,000  Level FlightAware ADS-B
01:22PM 43.8460 -73.0810 206° Southwest 326 375 32,000  Level FlightAware ADS-B
01:23PM 43.8270 -73.0940 206° Southwest 326 375 32,000  Level FlightAware ADS-B
01:23PM 43.7120 -73.1690 205° Southwest 326 375 32,000  Level FlightAware ADS-B
01:24PM 43.6560 -73.2070 206° Southwest 322 371 32,000  Level FlightAware ADS-B
01:24PM 43.6050 -73.2400 205° Southwest 320 368 32,000  Level FlightAware ADS-B
01:24PM 43.6018 -73.2425 209° Southwest 319 367 32,000  Level FlightAware ADS-B (CYOW)
01:25PM 43.5860 -73.2530 206° Southwest 319 367 32,000  Level FlightAware ADS-B
01:25PM 43.5228 -73.2943 205° Southwest 317 365 32,000  Level FlightAware ADS-B (CYOW)
01:26PM 43.4722 -73.3276 206° Southwest 316 364 32,000  Level FlightAware ADS-B (CYOW)
01:27PM 43.4128 -73.3664 205° Southwest 316 364 32,000  Level FlightAware ADS-B (CYOW)
01:27PM 43.4610 -73.3350 25° Northeast 317 365 32,000  Level FlightAware ADS-B
01:27PM 43.4420 -73.3470 205° Southwest 317 365 32,000 -1,320 Level FlightAware ADS-B
01:28PM 43.3374 -73.4158 206° Southwest 309 356 30,900 -2,940 Descending FlightAware ADS-B (CYOW)
01:29PM 43.2509 -73.4723 205° Southwest 299 344 27,800 -2,400 Descending FlightAware ADS-B (CYOW)
01:30PM 43.1586 -73.5322 205° Southwest 289 333 25,300 -2,040 Descending FlightAware ADS-B (CYOW)
01:31PM 43.0886 -73.5779 205° Southwest 274 315 23,300 -1,680 Descending FlightAware ADS-B (CYOW)
01:32PM 42.9972 -73.6439 205° Southwest 271 312 21,100 -1,500 Descending Boston Center
01:33PM 42.9294 -73.6867 205° Southwest 269 310 19,500 -1,380 Descending Boston Center
01:34PM 42.8592 -73.7322 205° Southwest 277 319 18,300 -1,620 Descending Boston Center
01:35PM 42.7847 -73.7803 205° Southwest 274 315 16,300 -1,680 Descending Boston Center
01:37PM 42.7233 -73.8161 203° Southwest 267 307 14,900 -1,500 Descending Boston Center
01:38PM 42.6542 -73.8450 197° South 255 293 13,300 -1,440 Descending Boston Center
01:39PM 42.5828 -73.8772 198° South 251 289 12,000 -660 Descending Boston Center
01:40PM 42.5156 -73.9069 198° South 252 290 12,000  Level Boston Center
01:41PM 42.4497 -73.9367 198° South 249 287 12,000  Level Boston Center
01:42PM 42.3831 -73.9664 198° South 251 289 12,000  Level Boston Center
01:43PM 42.3172 -73.9964 199° South 247 284 12,000  Level Boston Center
01:44PM 42.2508 -74.0253 198° South 250 288 12,000  Level Boston Center
01:45PM 42.1811 -74.0561 198° South 242 278 12,000  Level Boston Center
01:46PM 42.1122 -74.0875 199° South 254 292 12,100  Climbing Boston Center
01:47PM 42.0481 -74.1139 197° South 241 277 12,000 -60 Descending Boston Center
01:48PM 41.9839 -74.1433 199° South 244 281 12,000  Level Boston Center
01:49PM 41.9194 -74.1711 198° South 245 282 12,000  Level Boston Center
01:50PM 41.8536 -74.1992 198° South 247 284 12,000  Level Boston Center
01:51PM 41.7861 -74.2289 198° South 240 276 12,000 -660 Level Boston Center
01:56PM 41.4516 -74.3719 198° South 228 262 7,700 -720 Descending FlightAware ADS-B
01:57PM 41.4155 -74.3871 198° South 247 284 7,500 -420 Descending FlightAware ADS-B
02:02PM 41.0832 -74.2401 162° South 284 327 5,500 -420 Descending FlightAware ADS-B
02:02PM 41.0638 -74.2236 147° Southeast 284 327 5,500  Level FlightAware ADS-B
02:02PM 41.0468 -74.2092 147° Southeast 280 322 5,500  Level FlightAware ADS-B
02:03PM 41.0307 -74.1955 147° Southeast 271 312 5,500  Level FlightAware ADS-B
02:03PM 41.0121 -74.1797 147° Southeast 261 300 5,500  Level FlightAware ADS-B
02:03PM 40.9912 -74.1622 148° Southeast 253 291 5,500  Level FlightAware ADS-B
02:04PM 40.9758 -74.1494 148° Southeast 238 274 5,500  Level FlightAware ADS-B
02:04PM 40.9620 -74.1377 147° Southeast 218 251 5,500 -240 Level FlightAware ADS-B
02:04PM 40.9483 -74.1263 148° Southeast 209 241 5,400 -1,020 Descending FlightAware ADS-B
02:05PM 40.9141 -74.0836 137° Southeast 208 239 4,400 -1,440 Descending FlightAware ADS-B
02:05PM 40.8909 -74.0668 151° Southeast 207 238 3,600 -1,020 Descending FlightAware ADS-B
02:06PM 40.8657 -74.0573 164° South 208 239 3,500 -420 Descending FlightAware ADS-B
02:06PM 40.8616 -74.0578 185° South 194 223 3,400 -780 Descending FlightAware ADS-B
02:06PM 40.8588 -74.0588 195° South 191 220 3,400  Level FlightAware ADS-B
02:06PM 40.8554 -74.0611 207° Southwest 186 214 3,400 -420 Level FlightAware ADS-B
02:06PM 40.8472 -74.0675 211° Southwest 186 214 3,300 -780 Descending FlightAware ADS-B
02:06PM 40.8369 -74.0745 207° Southwest 188 216 3,100 -960 Descending FlightAware ADS-B
02:07PM 40.8111 -74.0913 206° Southwest 186 214 2,600 -840 Descending FlightAware ADS-B
02:07PM 40.8041 -74.0958 206° Southwest 180 207 2,500 -720 Descending FlightAware ADS-B
02:07PM 40.7929 -74.1032 207° Southwest 171 197 2,300 -960 Descending FlightAware ADS-B
02:08PM 40.7860 -74.1076 206° Southwest 160 184 2,100 -840 Descending FlightAware ADS-B
02:08PM 40.7704 -74.1176 206° Southwest 151 174 1,800 -780 Descending FlightAware ADS-B
02:08PM 40.7584 -74.1253 206° Southwest 130 150 1,500 -780 Descending FlightAware ADS-B
02:10PM 40.7167 -74.1521 206° Southwest 133 153 600 -720 Descending FlightAware ADS-B
02:10PM 40.7080 -74.1579 207° Southwest 120 138 -2,280 Descending FlightAware ADS-B